createdAt,value
2018-11-07T00:02:20.047Z,16.30
2018-11-07T00:04:56.098Z,16.30
2018-11-07T00:07:28.098Z,16.20
2018-11-07T00:10:00.620Z,16.20
2018-11-07T00:12:32.658Z,16.10
2018-11-07T00:15:03.646Z,16.10
2018-11-07T00:17:34.516Z,16.10
2018-11-07T00:20:05.081Z,16.00
2018-11-07T00:22:37.909Z,16.00
2018-11-07T00:25:11.487Z,16.00
2018-11-07T00:27:42.659Z,15.90
2018-11-07T00:30:13.572Z,15.90
2018-11-07T00:32:45.117Z,15.90
2018-11-07T00:35:16.102Z,15.90
2018-11-07T00:37:47.428Z,15.80
2018-11-07T00:40:18.617Z,15.80
2018-11-07T00:42:48.890Z,15.70
2018-11-07T00:45:20.088Z,15.70
2018-11-07T00:47:51.311Z,15.60
2018-11-07T00:50:23.921Z,15.60
2018-11-07T00:52:54.239Z,15.60
2018-11-07T00:55:25.997Z,15.60
2018-11-07T00:57:56.449Z,15.60
2018-11-07T01:00:27.877Z,15.60
2018-11-07T01:02:59.929Z,15.50
2018-11-07T01:05:30.598Z,15.50
2018-11-07T01:08:02.247Z,15.50
2018-11-07T01:10:34.267Z,15.40
2018-11-07T01:13:04.917Z,15.40
2018-11-07T01:15:36.374Z,15.30
2018-11-07T01:18:06.637Z,15.40
2018-11-07T01:20:37.306Z,15.30
2018-11-07T01:23:09.907Z,15.30
2018-11-07T01:25:41.887Z,15.30
2018-11-07T01:28:13.891Z,15.30
2018-11-07T01:30:45.200Z,15.30
2018-11-07T01:33:17.028Z,15.30
2018-11-07T01:35:48.239Z,15.30
2018-11-07T01:38:19.307Z,15.20
2018-11-07T01:40:50.754Z,15.20
2018-11-07T01:43:22.187Z,15.20
2018-11-07T01:45:52.996Z,15.20
2018-11-07T01:48:24.406Z,15.10
2018-11-07T01:50:55.147Z,15.10
2018-11-07T01:53:26.497Z,15.10
2018-11-07T01:55:58.056Z,15.10
2018-11-07T01:58:29.478Z,15.00
2018-11-07T02:01:00.161Z,15.00
2018-11-07T02:03:31.606Z,15.00
2018-11-07T02:06:01.889Z,15.00
2018-11-07T02:08:33.136Z,15.00
2018-11-07T02:11:04.858Z,15.00
2018-11-07T02:13:35.967Z,15.00
2018-11-07T02:16:07.396Z,14.90
2018-11-07T02:18:38.488Z,14.90
2018-11-07T02:21:09.703Z,14.90
2018-11-07T02:23:41.382Z,14.90
2018-11-07T02:26:12.772Z,14.90
2018-11-07T02:28:44.292Z,14.90
2018-11-07T02:31:15.655Z,14.90
2018-11-07T02:33:51.707Z,14.90
2018-11-07T02:36:24.107Z,14.90
2018-11-07T02:38:57.908Z,14.80
2018-11-07T02:41:38.567Z,14.80
2018-11-07T02:44:14.565Z,14.70
2018-11-07T02:46:45.465Z,14.70
2018-11-07T02:49:16.505Z,14.60
2018-11-07T02:51:52.425Z,14.60
2018-11-07T02:54:22.685Z,14.70
2018-11-07T02:59:34.271Z,14.80
2018-11-07T03:02:09.750Z,14.70
2018-11-07T03:04:41.021Z,14.60
2018-11-07T03:07:12.389Z,14.50
2018-11-07T03:09:44.191Z,14.50
2018-11-07T03:12:14.841Z,14.40
2018-11-07T03:14:46.561Z,14.30
2018-11-07T03:17:18.050Z,14.30
2018-11-07T03:19:49.221Z,14.20
2018-11-07T03:22:20.656Z,14.20
2018-11-07T03:24:52.731Z,14.20
2018-11-07T03:27:24.700Z,14.10
2018-11-07T03:29:56.133Z,14.10
2018-11-07T03:32:27.361Z,14.10
2018-11-07T03:34:58.361Z,14.00
2018-11-07T03:37:29.965Z,14.00
2018-11-07T03:40:01.650Z,13.90
2018-11-07T03:42:32.895Z,13.90
2018-11-07T03:45:03.918Z,13.80
2018-11-07T03:47:35.662Z,13.80
2018-11-07T03:50:07.391Z,13.70
2018-11-07T03:52:38.425Z,13.70
2018-11-07T03:55:09.872Z,13.60
2018-11-07T03:57:40.011Z,13.60
2018-11-07T04:00:11.832Z,13.60
2018-11-07T04:02:42.791Z,13.60
2018-11-07T04:05:13.752Z,13.50
2018-11-07T04:07:45.087Z,13.50
2018-11-07T04:10:16.461Z,13.40
2018-11-07T04:12:47.782Z,13.30
2018-11-07T04:15:18.662Z,13.30
2018-11-07T04:17:49.881Z,13.30
2018-11-07T04:20:21.902Z,13.40
2018-11-07T04:22:52.901Z,13.30
2018-11-07T04:25:23.841Z,13.30
2018-11-07T04:27:55.261Z,13.20
2018-11-07T04:30:25.771Z,13.20
2018-11-07T04:32:56.715Z,13.10
2018-11-07T04:35:28.232Z,13.00
2018-11-07T04:38:00.092Z,13.00
2018-11-07T04:40:31.503Z,13.00
2018-11-07T04:43:01.907Z,13.00
2018-11-07T04:45:32.002Z,12.90
2018-11-07T04:48:03.096Z,12.90
2018-11-07T04:50:43.180Z,12.80
2018-11-07T04:53:23.232Z,12.70
2018-11-07T04:55:53.498Z,12.60
2018-11-07T04:58:25.128Z,12.60
2018-11-07T05:00:56.577Z,12.60
2018-11-07T05:03:28.059Z,12.50
2018-11-07T05:06:01.757Z,12.50
2018-11-07T05:08:38.777Z,12.40
2018-11-07T05:11:09.024Z,12.40
2018-11-07T05:13:40.675Z,12.50
2018-11-07T05:16:11.924Z,12.50
2018-11-07T05:18:42.935Z,12.50
2018-11-07T05:21:22.899Z,12.50
2018-11-07T05:23:54.257Z,12.50
2018-11-07T05:26:25.959Z,12.50
2018-11-07T05:28:57.649Z,12.50
2018-11-07T05:31:29.027Z,12.50
2018-11-07T05:34:01.449Z,12.50
2018-11-07T05:36:33.938Z,12.50
2018-11-07T05:39:07.498Z,12.50
2018-11-07T05:41:38.867Z,12.40
2018-11-07T05:44:10.470Z,12.30
2018-11-07T05:46:42.438Z,12.30
2018-11-07T05:49:14.081Z,12.20
2018-11-07T05:51:45.478Z,12.20
2018-11-07T05:54:17.530Z,12.20
2018-11-07T05:56:54.141Z,12.20
2018-11-07T05:59:25.319Z,12.30
2018-11-07T06:01:57.882Z,12.40
2018-11-07T06:04:28.521Z,12.30
2018-11-07T06:07:00.091Z,12.30
2018-11-07T06:09:32.070Z,12.20
2018-11-07T06:12:03.320Z,12.20
2018-11-07T06:14:38.109Z,12.20
2018-11-07T06:17:09.081Z,12.10
2018-11-07T06:19:41.130Z,12.10
2018-11-07T06:22:12.921Z,12.10
2018-11-07T06:24:49.073Z,12.10
2018-11-07T06:27:21.070Z,12.00
2018-11-07T06:29:53.280Z,12.00
2018-11-07T06:32:26.141Z,12.10
2018-11-07T06:34:58.861Z,12.20
2018-11-07T06:37:29.311Z,12.30
2018-11-07T06:40:00.864Z,12.30
2018-11-07T06:42:31.425Z,12.20
2018-11-07T06:45:03.788Z,12.20
2018-11-07T06:47:40.974Z,12.20
2018-11-07T06:50:15.594Z,12.20
2018-11-07T06:52:47.825Z,12.30
2018-11-07T06:55:18.980Z,12.30
2018-11-07T06:57:50.864Z,12.30
2018-11-07T07:00:22.225Z,12.30
2018-11-07T07:02:52.405Z,12.40
2018-11-07T07:05:24.621Z,12.40
2018-11-07T07:07:55.685Z,12.50
2018-11-07T07:10:29.405Z,12.50
2018-11-07T07:13:00.514Z,12.60
2018-11-07T07:15:31.665Z,12.60
2018-11-07T07:18:03.155Z,12.60
2018-11-07T07:20:34.228Z,12.70
2018-11-07T07:23:04.644Z,12.70
2018-11-07T07:25:36.219Z,12.70
2018-11-07T07:28:06.805Z,12.70
2018-11-07T07:30:38.034Z,12.80
2018-11-07T07:33:08.587Z,12.80
2018-11-07T07:35:40.454Z,12.90
2018-11-07T07:38:11.374Z,13.00
2018-11-07T07:40:42.416Z,13.00
2018-11-07T07:43:12.774Z,13.00
2018-11-07T07:45:43.537Z,13.00
2018-11-07T07:48:13.760Z,13.10
2018-11-07T07:50:44.815Z,13.20
2018-11-07T07:53:16.038Z,13.30
2018-11-07T07:55:46.555Z,13.40
2018-11-07T07:58:17.674Z,13.50
2018-11-07T08:00:49.474Z,13.60
2018-11-07T08:03:20.448Z,13.60
2018-11-07T08:05:52.206Z,13.70
2018-11-07T08:08:23.064Z,13.90
2018-11-07T08:10:53.968Z,14.10
2018-11-07T08:13:24.696Z,14.20
2018-11-07T08:15:55.395Z,14.40
2018-11-07T08:18:25.414Z,14.50
2018-11-07T08:20:56.784Z,14.60
2018-11-07T08:23:27.964Z,14.80
2018-11-07T08:25:59.234Z,14.80
2018-11-07T08:28:29.677Z,15.00
2018-11-07T08:31:01.214Z,15.10
2018-11-07T08:33:32.585Z,15.20
2018-11-07T08:36:04.034Z,15.20
2018-11-07T08:38:36.085Z,15.30
2018-11-07T08:41:09.959Z,15.40
2018-11-07T08:43:41.624Z,15.50
2018-11-07T08:46:12.168Z,15.60
2018-11-07T08:48:43.394Z,15.80
2018-11-07T08:51:14.297Z,15.80
2018-11-07T08:53:45.358Z,15.80
2018-11-07T08:56:16.915Z,15.80
2018-11-07T08:58:48.168Z,15.80
2018-11-07T09:01:28.151Z,15.70
2018-11-07T09:03:59.695Z,15.70
2018-11-07T09:06:39.952Z,15.60
2018-11-07T09:09:12.475Z,15.60
2018-11-07T09:11:52.351Z,15.60
2018-11-07T09:14:31.755Z,15.60
2018-11-07T09:17:11.417Z,15.60
2018-11-07T09:19:47.978Z,15.80
2018-11-07T09:22:24.793Z,16.00
2018-11-07T09:24:57.232Z,16.10
2018-11-07T09:27:30.403Z,16.20
2018-11-07T09:30:09.613Z,16.30
2018-11-07T09:32:49.405Z,16.40
2018-11-07T09:35:22.796Z,16.40
2018-11-07T09:37:55.486Z,16.50
2018-11-07T09:40:32.589Z,16.50
2018-11-07T09:43:12.095Z,16.60
2018-11-07T09:45:49.706Z,16.70
2018-11-07T09:48:23.305Z,16.70
2018-11-07T09:50:55.719Z,16.70
2018-11-07T09:53:28.817Z,16.70
2018-11-07T09:56:01.017Z,16.70
2018-11-07T09:58:37.014Z,16.60
2018-11-07T10:01:12.503Z,16.60
2018-11-07T10:03:52.455Z,16.60
2018-11-07T10:06:31.739Z,16.60
2018-11-07T10:09:13.031Z,16.60
2018-11-07T10:11:49.413Z,16.60
2018-11-07T10:14:25.484Z,16.60
2018-11-07T10:17:01.549Z,16.60
2018-11-07T10:19:37.651Z,16.60
2018-11-07T10:22:13.623Z,16.60
2018-11-07T10:24:46.990Z,16.70
2018-11-07T10:27:18.670Z,16.70
2018-11-07T10:29:50.888Z,16.80
2018-11-07T10:32:22.531Z,16.80
2018-11-07T10:34:54.143Z,16.80
2018-11-07T10:37:33.347Z,16.80
2018-11-07T10:40:10.109Z,16.80
2018-11-07T10:42:46.617Z,16.80
2018-11-07T10:45:18.197Z,16.80
2018-11-07T10:47:50.928Z,16.80
2018-11-07T10:50:27.720Z,16.80
2018-11-07T10:53:07.306Z,16.80
2018-11-07T10:55:45.617Z,16.80
2018-11-07T10:58:23.420Z,16.80
2018-11-07T11:01:08.669Z,16.80
2018-11-07T11:03:44.162Z,16.80
2018-11-07T11:06:20.593Z,16.90
2018-11-07T11:08:53.093Z,16.90
2018-11-07T11:11:26.687Z,16.90
2018-11-07T11:14:02.078Z,16.90
2018-11-07T11:16:36.105Z,16.90
2018-11-07T11:19:08.808Z,17.00
2018-11-07T11:21:40.354Z,17.00
2018-11-07T11:24:16.659Z,17.00
2018-11-07T11:26:48.828Z,17.00
2018-11-07T11:29:24.567Z,17.00
2018-11-07T11:31:56.927Z,17.00
2018-11-07T11:34:31.865Z,17.00
2018-11-07T11:37:06.667Z,17.00
2018-11-07T11:39:40.277Z,17.10
2018-11-07T11:42:13.847Z,17.10
2018-11-07T11:44:47.476Z,17.10
2018-11-07T11:47:19.697Z,17.20
2018-11-07T11:49:55.887Z,17.20
2018-11-07T11:52:29.068Z,17.30
2018-11-07T11:55:01.246Z,17.30
2018-11-07T11:57:32.367Z,17.40
2018-11-07T12:00:10.823Z,17.40
2018-11-07T12:02:49.937Z,17.50
2018-11-07T12:05:30.895Z,17.50
2018-11-07T12:08:07.439Z,17.50
2018-11-07T12:10:43.735Z,17.60
2018-11-07T12:13:19.275Z,17.60
2018-11-07T12:15:52.684Z,17.60
2018-11-07T12:18:24.348Z,17.60
2018-11-07T12:21:02.220Z,17.70
2018-11-07T12:23:37.834Z,17.70
2018-11-07T12:26:09.274Z,17.80
2018-11-07T12:28:44.665Z,17.80
2018-11-07T12:31:16.500Z,17.90
2018-11-07T12:33:50.777Z,17.90
2018-11-07T12:36:25.607Z,18.00
2018-11-07T12:38:58.061Z,18.00
2018-11-07T12:41:30.004Z,18.00
2018-11-07T12:44:02.362Z,18.00
2018-11-07T12:46:34.010Z,18.10
2018-11-07T12:49:05.843Z,18.10
2018-11-07T12:51:45.349Z,18.10
2018-11-07T12:54:16.908Z,18.10
2018-11-07T12:56:48.439Z,18.10
2018-11-07T12:59:20.671Z,18.10
2018-11-07T13:01:52.452Z,18.10
2018-11-07T13:04:24.689Z,18.10
2018-11-07T13:06:57.640Z,18.10
2018-11-07T13:09:30.178Z,18.10
2018-11-07T13:12:06.114Z,18.10
2018-11-07T13:14:45.305Z,18.10
2018-11-07T13:17:24.909Z,18.00
2018-11-07T13:20:02.140Z,18.00
2018-11-07T13:22:37.241Z,18.00
2018-11-07T13:25:17.362Z,18.00
2018-11-07T13:27:52.684Z,18.00
2018-11-07T13:30:25.070Z,18.00
2018-11-07T13:33:02.466Z,18.00
2018-11-07T13:35:34.756Z,17.90
2018-11-07T13:38:06.639Z,17.90
2018-11-07T13:40:42.605Z,17.90
2018-11-07T13:43:14.852Z,17.90
2018-11-07T13:45:46.836Z,17.90
2018-11-07T13:48:19.233Z,17.90
2018-11-07T13:50:51.190Z,17.90
2018-11-07T13:53:31.967Z,17.80
2018-11-07T13:56:08.026Z,17.80
2018-11-07T13:58:44.824Z,17.80
2018-11-07T14:01:24.860Z,17.80
2018-11-07T14:03:56.871Z,17.80
2018-11-07T14:06:32.490Z,17.80
2018-11-07T14:09:10.868Z,17.80
2018-11-07T14:11:42.838Z,17.80
2018-11-07T14:14:14.728Z,17.80
2018-11-07T14:16:47.478Z,17.80
2018-11-07T14:19:27.102Z,17.80
2018-11-07T14:22:04.857Z,17.70
2018-11-07T14:24:38.505Z,17.70
2018-11-07T14:27:10.205Z,17.70
2018-11-07T14:29:43.094Z,17.70
2018-11-07T14:32:18.255Z,17.70
2018-11-07T14:34:50.206Z,17.60
2018-11-07T14:37:22.354Z,17.60
2018-11-07T14:39:57.793Z,17.50
2018-11-07T14:42:33.834Z,17.50
2018-11-07T14:45:13.487Z,17.50
2018-11-07T14:47:45.528Z,17.40
2018-11-07T14:50:21.741Z,17.30
2018-11-07T14:52:55.489Z,17.30
2018-11-07T14:55:27.729Z,17.20
2018-11-07T14:57:59.320Z,17.20
2018-11-07T15:00:37.348Z,17.20
2018-11-07T15:03:09.790Z,17.10
2018-11-07T15:05:41.282Z,17.10
2018-11-07T15:08:18.356Z,17.10
2018-11-07T15:10:51.222Z,17.00
2018-11-07T15:13:27.132Z,17.00
2018-11-07T15:16:06.370Z,17.00
2018-11-07T15:18:40.590Z,16.90
2018-11-07T15:21:20.266Z,16.90
2018-11-07T15:23:57.978Z,16.80
2018-11-07T15:26:31.548Z,16.80
2018-11-07T15:29:03.690Z,16.70
2018-11-07T15:31:35.453Z,16.70
2018-11-07T15:34:07.269Z,16.70
2018-11-07T15:36:40.298Z,16.60
2018-11-07T15:39:13.578Z,16.60
2018-11-07T15:41:45.267Z,16.50
2018-11-07T15:44:17.788Z,16.50
2018-11-07T15:46:49.679Z,16.40
2018-11-07T15:49:22.778Z,16.30
2018-11-07T15:52:02.428Z,16.20
2018-11-07T15:54:36.988Z,16.20
2018-11-07T15:57:11.496Z,16.10
2018-11-07T15:59:45.828Z,16.10
2018-11-07T16:02:25.357Z,16.00
2018-11-07T16:04:57.926Z,16.00
2018-11-07T16:07:29.437Z,15.90
2018-11-07T16:10:03.623Z,15.80
2018-11-07T16:12:38.404Z,15.80
2018-11-07T16:15:12.386Z,15.80
2018-11-07T16:17:44.354Z,15.80
2018-11-07T16:20:18.111Z,15.80
2018-11-07T16:22:51.159Z,15.70
2018-11-07T16:25:23.633Z,15.70
2018-11-07T16:27:55.233Z,15.60
2018-11-07T16:30:35.254Z,15.60
2018-11-07T16:33:08.065Z,15.50
2018-11-07T16:35:41.385Z,15.40
2018-11-07T16:38:21.068Z,15.40
2018-11-07T16:40:59.071Z,15.30
2018-11-07T16:43:35.040Z,15.30
2018-11-07T16:46:10.855Z,15.30
2018-11-07T16:48:47.285Z,15.30
2018-11-07T16:51:20.222Z,15.30
2018-11-07T16:53:57.353Z,15.30
2018-11-07T16:56:37.095Z,15.20
2018-11-07T16:59:12.094Z,15.20
2018-11-07T17:01:51.454Z,15.20
2018-11-07T17:04:27.504Z,15.10
2018-11-07T17:06:59.506Z,15.00
2018-11-07T17:09:36.288Z,15.00
2018-11-07T17:12:11.828Z,15.00
2018-11-07T17:14:43.969Z,15.00
2018-11-07T17:17:16.919Z,15.00
2018-11-07T17:19:56.182Z,14.90
2018-11-07T17:22:33.822Z,14.90
2018-11-07T17:25:11.942Z,14.90
2018-11-07T17:27:49.255Z,14.90
2018-11-07T17:30:28.681Z,14.80
2018-11-07T17:33:08.063Z,14.80
2018-11-07T17:35:47.478Z,14.70
2018-11-07T17:38:18.881Z,14.70
2018-11-07T17:40:50.348Z,14.70
2018-11-07T17:43:21.799Z,14.70
2018-11-07T17:45:52.687Z,14.70
2018-11-07T17:48:23.131Z,14.60
2018-11-07T17:50:53.808Z,14.50
2018-11-07T17:53:24.367Z,14.40
2018-11-07T17:55:56.039Z,14.30
2018-11-07T17:58:27.788Z,14.40
2018-11-07T18:00:59.167Z,14.30
2018-11-07T18:03:30.079Z,14.40
2018-11-07T18:06:01.899Z,14.30
2018-11-07T18:08:32.957Z,14.20
2018-11-07T18:11:04.877Z,14.20
2018-11-07T18:13:36.888Z,14.10
2018-11-07T18:16:07.747Z,14.10
2018-11-07T18:18:39.265Z,14.00
2018-11-07T18:21:12.917Z,14.00
2018-11-07T18:23:44.207Z,14.00
2018-11-07T18:26:15.639Z,14.00
2018-11-07T18:28:46.941Z,14.00
2018-11-07T18:31:17.549Z,14.00
2018-11-07T18:33:48.288Z,13.90
2018-11-07T18:36:19.517Z,13.90
2018-11-07T18:38:50.111Z,13.90
2018-11-07T18:41:22.373Z,13.90
2018-11-07T18:43:53.408Z,13.80
2018-11-07T18:46:23.497Z,13.70
2018-11-07T18:48:54.277Z,13.70
2018-11-07T18:51:25.236Z,13.70
2018-11-07T18:53:56.932Z,13.60
2018-11-07T18:56:36.533Z,13.60
2018-11-07T18:59:15.635Z,13.60
2018-11-07T19:01:46.463Z,13.70
2018-11-07T19:04:17.283Z,13.70
2018-11-07T19:06:47.640Z,13.70
2018-11-07T19:09:20.614Z,13.70
2018-11-07T19:11:51.712Z,13.80
2018-11-07T19:14:24.164Z,13.80
2018-11-07T19:16:55.252Z,13.90
2018-11-07T19:19:29.463Z,13.90
2018-11-07T19:22:00.016Z,13.90
2018-11-07T19:24:31.693Z,13.90
2018-11-07T19:27:11.586Z,13.90
2018-11-07T19:29:43.957Z,13.90
2018-11-07T19:32:35.984Z,14.00
2018-11-07T19:35:10.317Z,14.00
2018-11-07T19:37:40.845Z,14.00
2018-11-07T19:40:14.624Z,14.00
2018-11-07T19:42:45.565Z,14.00
2018-11-07T19:45:18.340Z,13.90
2018-11-07T19:47:49.254Z,13.80
2018-11-07T19:50:21.868Z,13.80
2018-11-07T19:52:53.438Z,13.90
2018-11-07T19:55:25.825Z,13.90
2018-11-07T19:58:03.617Z,13.90
2018-11-07T20:00:36.113Z,13.90
2018-11-07T20:03:07.614Z,13.90
2018-11-07T20:05:47.282Z,13.90
2018-11-07T20:08:20.043Z,13.90
2018-11-07T20:11:00.210Z,13.90
2018-11-07T20:13:31.629Z,13.80
2018-11-07T20:16:10.859Z,13.80
2018-11-07T20:18:50.496Z,13.80
2018-11-07T20:21:25.440Z,13.70
2018-11-07T20:23:55.754Z,13.70
2018-11-07T20:26:35.708Z,13.70
2018-11-07T20:29:09.229Z,13.70
2018-11-07T20:31:48.878Z,13.70
2018-11-07T20:34:21.079Z,13.70
2018-11-07T20:37:01.532Z,13.80
2018-11-07T20:39:41.250Z,13.80
2018-11-07T20:42:12.131Z,13.80
2018-11-07T20:44:44.229Z,13.80
2018-11-07T20:47:15.478Z,13.80
2018-11-07T20:49:47.438Z,13.80
2018-11-07T20:52:19.599Z,13.80
2018-11-07T20:54:50.442Z,13.80
2018-11-07T20:57:22.552Z,13.80
2018-11-07T20:59:58.130Z,13.90
2018-11-07T21:02:29.119Z,13.90
2018-11-07T21:05:00.129Z,14.00
2018-11-07T21:07:31.308Z,14.10
2018-11-07T21:10:01.789Z,14.10
2018-11-07T21:12:32.415Z,14.10
2018-11-07T21:15:03.739Z,14.10
2018-11-07T21:17:35.159Z,14.10
2018-11-07T21:20:06.839Z,14.00
2018-11-07T21:22:37.039Z,13.90
2018-11-07T21:25:07.838Z,13.80
2018-11-07T21:27:39.499Z,13.80
2018-11-07T21:30:15.209Z,13.70
2018-11-07T21:32:47.059Z,13.70
2018-11-07T21:35:17.999Z,13.60
2018-11-07T21:37:49.059Z,13.60
2018-11-07T21:40:20.319Z,13.50
2018-11-07T21:42:51.283Z,13.50
2018-11-07T21:45:22.328Z,13.50
2018-11-07T21:47:53.138Z,13.50
2018-11-07T21:50:24.509Z,13.50
2018-11-07T21:52:55.929Z,13.40
2018-11-07T21:55:27.729Z,13.50
2018-11-07T21:58:00.689Z,13.40
2018-11-07T22:00:33.382Z,13.40
2018-11-07T22:03:06.826Z,13.40
2018-11-07T22:05:41.795Z,13.40
2018-11-07T22:08:18.289Z,13.50
2018-11-07T22:10:56.719Z,13.50
2018-11-07T22:13:29.919Z,13.60
2018-11-07T22:16:03.969Z,13.60
2018-11-07T22:18:37.119Z,13.60
2018-11-07T22:21:11.549Z,13.60
2018-11-07T22:23:45.854Z,13.60
2018-11-07T22:26:20.069Z,13.60
2018-11-07T22:28:52.905Z,13.60
2018-11-07T22:31:23.480Z,13.60
2018-11-07T22:33:54.758Z,13.60
2018-11-07T22:36:25.969Z,13.60
2018-11-07T22:38:57.241Z,13.60
2018-11-07T22:41:29.891Z,13.60
2018-11-07T22:44:02.349Z,13.60
2018-11-07T22:46:34.539Z,13.50
2018-11-07T22:49:05.519Z,13.50
2018-11-07T22:51:37.889Z,13.40
2018-11-07T22:54:08.855Z,13.30
2018-11-07T22:56:43.399Z,13.20
2018-11-07T22:59:16.289Z,13.10
2018-11-07T23:01:48.089Z,13.10
2018-11-07T23:04:18.690Z,12.90
2018-11-07T23:06:50.029Z,12.80
2018-11-07T23:09:21.162Z,12.80
2018-11-07T23:11:51.290Z,12.80
2018-11-07T23:14:23.675Z,12.80
2018-11-07T23:16:54.830Z,12.80
2018-11-07T23:19:25.756Z,12.70
2018-11-07T23:21:56.949Z,12.60
2018-11-07T23:24:27.209Z,12.50
2018-11-07T23:26:59.899Z,12.40
2018-11-07T23:29:31.979Z,12.40
2018-11-07T23:32:02.272Z,12.40
2018-11-07T23:34:35.021Z,12.30
2018-11-07T23:37:05.560Z,12.20
2018-11-07T23:39:36.079Z,12.20
2018-11-07T23:42:06.399Z,12.10
2018-11-07T23:44:36.929Z,12.20
2018-11-07T23:47:07.969Z,12.10
2018-11-07T23:49:38.689Z,12.00
2018-11-07T23:52:10.090Z,12.00
2018-11-07T23:54:40.716Z,12.00
2018-11-07T23:57:12.677Z,11.90
2018-11-07T23:59:44.739Z,11.90
